Silver Lake, Wisconsin
Current Conditions -  °F | °C
As of 2:55 PM on Saturday 25 Oct 2014 (Local Time) from KBUU Reporting Station
Clear Clear  
Wind Chill: 67°   Ceiling: Unl
Heat Index: 67°   Visibility: 10mi
Dew Point: 29°   Wind: 20mph
Humidity: 23%   Direction: 290°WNW
Pressure: 29.9"   Gusts: 25mph
Location:  42.55°N, 88.17°W
Report Text: KBUU 251955Z AUTO 29017G22KT 10SM CLR 20/M02 A2990 RMK AO2 T01961019
Loading
Personal Weather Stations






























Interactive Weather Map
Tropical Storm Tracking
New forecast layout! Learn more

10-Day Weather Forecast

Advertisements
Track Severe Weather on mobile